Time;durP1;ratioP1;P1;durP2;ratioP2;P2;SDS_P1;SDS_P2;PMS_P1;PMS_P2;Temp;Humidity;BMP_temperature;BMP_pressure;BME280_temperature;BME280_humidity;BME280_pressure;Samples;Min_cycle;Max_cycle;Signal;HPM_P1;HPM_P2
2021/10/04 00:01:35;;;;;;;13.63;3.60;;;13.90;99.90;;;;;;4982884;28;20241;-91
2021/10/04 00:04:07;;;;;;;14.20;3.50;;;13.90;99.90;;;;;;4964796;28;20245;-91
2021/10/04 00:06:39;;;;;;;14.43;3.30;;;13.80;99.90;;;;;;4979791;28;20261;-91
2021/10/04 00:09:11;;;;;;;10.53;3.10;;;13.80;99.90;;;;;;4982427;28;20254;-91
2021/10/04 00:11:44;;;;;;;11.67;3.30;;;13.80;99.90;;;;;;4982088;28;20203;-91
2021/10/04 00:14:16;;;;;;;13.60;3.70;;;13.90;99.90;;;;;;4990101;28;20322;-91
2021/10/04 00:16:49;;;;;;;12.10;3.17;;;13.90;99.90;;;;;;5009434;28;20261;-91
2021/10/04 00:19:21;;;;;;;12.13;3.03;;;13.80;99.90;;;;;;5018825;28;20218;-91
2021/10/04 00:21:52;;;;;;;13.87;2.93;;;13.60;99.90;;;;;;5018875;28;20240;-90
2021/10/04 00:24:24;;;;;;;9.77;2.90;;;13.70;99.90;;;;;;5015606;28;20222;-96
2021/10/04 00:26:58;;;;;;;12.60;3.33;;;13.60;99.90;;;;;;5005216;28;20216;-96
2021/10/04 00:29:30;;;;;;;10.70;3.03;;;13.60;99.90;;;;;;5001527;28;20221;-95
2021/10/04 00:32:05;;;;;;;10.50;3.40;;;13.60;99.90;;;;;;5001255;28;20214;-96
2021/10/04 00:34:37;;;;;;;14.43;3.23;;;13.60;99.90;;;;;;5003641;28;20689;-96
2021/10/04 00:37:10;;;;;;;8.90;2.70;;;13.60;99.90;;;;;;5001231;28;20210;-96
2021/10/04 00:39:41;;;;;;;12.37;3.70;;;13.60;99.90;;;;;;5002054;28;20230;-96
2021/10/04 00:42:15;;;;;;;12.90;4.00;;;13.50;99.90;;;;;;4999640;28;20228;-96
2021/10/04 00:44:46;;;;;;;15.27;4.00;;;13.50;99.90;;;;;;5002215;28;20210;-96
2021/10/04 00:47:18;;;;;;;12.17;4.03;;;13.60;99.90;;;;;;4999104;28;20211;-96
2021/10/04 00:49:50;;;;;;;14.20;5.23;;;13.60;99.90;;;;;;5000838;28;20276;-96
2021/10/04 00:52:23;;;;;;;15.03;5.10;;;13.70;99.90;;;;;;5001338;28;20254;-96
2021/10/04 00:54:56;;;;;;;17.33;4.70;;;13.60;99.90;;;;;;5002860;28;20229;-96
2021/10/04 00:57:30;;;;;;;15.60;4.93;;;13.60;99.90;;;;;;5000168;28;20246;-96
2021/10/04 01:00:02;;;;;;;13.20;3.40;;;13.70;99.90;;;;;;5004777;28;20202;-96
2021/10/04 01:02:34;;;;;;;15.23;3.30;;;13.60;99.90;;;;;;5002682;28;20226;-96
2021/10/04 01:05:08;;;;;;;11.57;3.03;;;13.50;99.90;;;;;;5002202;28;20214;-95
2021/10/04 01:07:41;;;;;;;9.37;2.97;;;13.40;99.90;;;;;;5014464;28;20229;-94
2021/10/04 01:10:14;;;;;;;14.17;3.10;;;13.40;99.90;;;;;;5018022;28;20234;-95
2021/10/04 01:12:51;;;;;;;11.33;2.47;;;13.40;99.90;;;;;;5016864;28;20246;-96
2021/10/04 01:15:24;;;;;;;13.57;3.07;;;13.40;99.90;;;;;;5002861;28;20272;-96
2021/10/04 01:17:57;;;;;;;14.80;3.73;;;13.40;99.90;;;;;;5003682;28;20253;-96
2021/10/04 01:20:33;;;;;;;7.70;2.50;;;13.30;99.90;;;;;;5001268;28;20237;-96
2021/10/04 01:23:05;;;;;;;9.43;2.67;;;13.30;99.90;;;;;;5000477;28;20233;-96
2021/10/04 01:25:37;;;;;;;10.17;2.73;;;13.20;99.90;;;;;;4999134;28;20206;-96
2021/10/04 01:28:08;;;;;;;12.97;2.83;;;13.30;99.90;;;;;;5000271;28;20289;-96
2021/10/04 01:30:56;;;;;;;11.13;2.60;;;13.30;99.90;;;;;;5000794;28;20242;-96
2021/10/04 01:33:28;;;;;;;10.37;3.37;;;13.20;99.90;;;;;;5001982;28;20198;-96
2021/10/04 01:36:01;;;;;;;9.53;3.40;;;13.20;99.90;;;;;;4980405;28;20207;-96
2021/10/04 01:38:34;;;;;;;16.43;2.50;;;13.10;99.90;;;;;;4982091;28;20235;-96
2021/10/04 01:41:05;;;;;;;11.77;3.33;;;13.10;99.90;;;;;;4989824;28;20299;-95
2021/10/04 01:43:37;;;;;;;15.40;2.40;;;13.00;99.90;;;;;;4981385;28;20231;-93
2021/10/04 01:46:09;;;;;;;10.30;2.80;;;13.00;99.90;;;;;;5000045;28;20595;-94
2021/10/04 01:48:42;;;;;;;9.53;2.97;;;13.00;99.90;;;;;;5003711;28;20674;-96
2021/10/04 01:51:16;;;;;;;10.83;3.03;;;12.90;99.90;;;;;;5015890;28;20240;-95
2021/10/04 01:53:48;;;;;;;12.47;3.07;;;12.90;99.90;;;;;;5001436;28;20261;-95
2021/10/04 01:56:20;;;;;;;9.83;2.10;;;12.90;99.90;;;;;;5000372;28;20219;-94
2021/10/04 01:58:51;;;;;;;13.40;2.70;;;12.90;99.90;;;;;;4656589;28;10000061;-95
2021/10/04 02:01:22;;;;;;;10.87;2.60;;;12.90;99.90;;;;;;5012191;28;20237;-94
2021/10/04 02:03:56;;;;;;;10.00;2.70;;;12.90;99.90;;;;;;5000383;28;20210;-92
2021/10/04 02:06:49;;;;;;;7.93;2.60;;;12.80;99.90;;;;;;5002284;28;20206;-95
2021/10/04 02:09:21;;;;;;;10.33;3.40;;;12.80;99.90;;;;;;5005980;28;20206;-95
2021/10/04 02:11:56;;;;;;;11.00;3.50;;;12.80;99.90;;;;;;5012591;28;20226;-96
2021/10/04 02:17:15;;;;;;;15.07;3.07;;;12.70;99.90;;;;;;5012089;28;20210;-96
2021/10/04 02:19:50;;;;;;;10.70;2.97;;;12.70;99.90;;;;;;5010927;28;20202;-94
2021/10/04 02:25:11;;;;;;;14.30;3.50;;;12.70;99.90;;;;;;5015012;28;20205;-96
2021/10/04 02:27:43;;;;;;;10.47;3.47;;;12.70;99.90;;;;;;5020644;28;20198;-95
2021/10/04 02:30:19;;;;;;;9.63;2.73;;;12.60;99.90;;;;;;5011182;28;20234;-93
2021/10/04 02:32:51;;;;;;;11.07;2.67;;;12.70;99.90;;;;;;5011089;28;20217;-93
2021/10/04 02:35:24;;;;;;;12.27;3.37;;;12.70;99.90;;;;;;5012365;28;20186;-95
2021/10/04 02:38:00;;;;;;;6.37;3.00;;;12.60;99.90;;;;;;5014309;28;20206;-95
2021/10/04 02:40:33;;;;;;;15.27;3.27;;;12.60;99.90;;;;;;5012921;28;20221;-96
2021/10/04 03:15:00;;;;;;;12.37;3.53;;;12.30;99.90;;;;;;5086950;23;20242;-94
2021/10/04 03:20:09;;;;;;;8.67;2.70;;;12.30;99.90;;;;;;5061871;23;20210;-89
2021/10/04 03:25:17;;;;;;;10.33;2.60;;;12.30;99.90;;;;;;5133308;23;20229;-96
2021/10/04 03:27:49;;;;;;;14.33;3.53;;;12.30;99.90;;;;;;5020801;28;20209;-96
2021/10/04 03:33:10;;;;;;;14.43;4.00;;;12.30;99.90;;;;;;5072663;23;20280;-96
2021/10/04 03:35:43;;;;;;;8.90;3.27;;;12.30;99.90;;;;;;5041930;28;20208;-95
2021/10/04 03:38:17;;;;;;;10.23;3.33;;;12.30;99.90;;;;;;5025779;28;20265;-92
2021/10/04 03:40:50;;;;;;;14.60;4.13;;;12.30;99.90;;;;;;5040347;28;20201;-96
2021/10/04 03:46:07;;;;;;;8.00;3.27;;;12.30;99.90;;;;;;5001653;26;20214;-95
2021/10/04 03:48:47;;;;;;;12.80;3.50;;;12.30;99.90;;;;;;5002548;28;20179;-93
2021/10/04 03:51:30;;;;;;;11.13;3.30;;;12.30;99.90;;;;;;4981323;28;20234;-96
2021/10/04 03:54:04;;;;;;;10.07;3.53;;;12.30;99.90;;;;;;4981097;28;20212;-96
2021/10/04 03:56:36;;;;;;;10.73;3.40;;;12.30;99.90;;;;;;4980058;28;20211;-96
2021/10/04 03:59:07;;;;;;;11.97;4.33;;;12.30;99.90;;;;;;5091351;23;20230;-96
2021/10/04 04:01:39;;;;;;;9.33;3.10;;;12.30;99.90;;;;;;5020519;28;20186;-96
2021/10/04 04:06:51;;;;;;;10.13;3.53;;;12.20;99.90;;;;;;5403904;23;20255;-94
2021/10/04 04:09:23;;;;;;;9.07;3.10;;;12.20;99.90;;;;;;5003711;28;20224;-95
2021/10/04 04:11:55;;;;;;;10.07;3.83;;;12.20;99.90;;;;;;5019579;28;20246;-95
2021/10/04 04:14:29;;;;;;;11.27;3.63;;;12.20;99.90;;;;;;5008693;28;20218;-95
2021/10/04 04:17:02;;;;;;;10.03;4.23;;;12.10;99.90;;;;;;5155669;23;20234;-95
2021/10/04 04:22:33;;;;;;;13.90;3.07;;;12.10;99.90;;;;;;5009766;28;20253;-95
2021/10/04 04:25:04;;;;;;;11.67;3.30;;;12.10;99.90;;;;;;5032177;28;20265;-95
2021/10/04 04:27:37;;;;;;;11.70;3.77;;;12.00;99.90;;;;;;5016724;28;20213;-94
2021/10/04 04:33:10;;;;;;;9.30;2.90;;;12.00;99.90;;;;;;4996589;28;20241;-95
2021/10/04 04:35:43;;;;;;;8.97;2.97;;;11.90;99.90;;;;;;4992576;28;20215;-95
2021/10/04 04:44:05;;;;;;;15.70;4.50;;;11.90;99.90;;;;;;5032598;28;20301;-95
2021/10/04 04:46:37;;;;;;;10.57;4.47;;;11.90;99.90;;;;;;5018089;28;20206;-95
2021/10/04 04:49:09;;;;;;;11.80;4.00;;;11.90;99.90;;;;;;4998707;28;20230;-95
2021/10/04 04:51:43;;;;;;;10.40;3.33;;;11.90;99.90;;;;;;4968709;28;20231;-95
2021/10/04 04:54:18;;;;;;;12.77;3.47;;;11.90;99.90;;;;;;4983959;28;20231;-95
2021/10/04 04:56:50;;;;;;;13.97;2.80;;;11.90;99.90;;;;;;4966090;28;20233;-95
2021/10/04 04:59:22;;;;;;;9.80;2.83;;;11.90;99.90;;;;;;4984286;28;20226;-95
2021/10/04 05:01:54;;;;;;;9.50;2.90;;;11.90;99.90;;;;;;4986873;28;20303;-95
2021/10/04 05:04:30;;;;;;;9.47;2.80;;;11.80;99.90;;;;;;4994593;28;20210;-95
2021/10/04 05:07:02;;;;;;;14.00;3.87;;;11.80;99.90;;;;;;4987601;28;20222;-95
2021/10/04 05:09:35;;;;;;;10.23;3.23;;;11.80;99.90;;;;;;4986405;28;20218;-94
2021/10/04 05:12:07;;;;;;;13.13;3.00;;;11.80;99.90;;;;;;4981647;28;20296;-95
2021/10/04 05:14:39;;;;;;;11.43;3.27;;;11.70;99.90;;;;;;4988471;28;20207;-95
2021/10/04 05:17:11;;;;;;;13.73;3.20;;;11.80;99.90;;;;;;4980947;28;20215;-95
2021/10/04 05:19:44;;;;;;;11.40;3.47;;;11.70;99.90;;;;;;5000378;28;20202;-94
2021/10/04 05:22:16;;;;;;;10.57;3.47;;;11.70;99.90;;;;;;5001480;28;20604;-95
2021/10/04 05:24:51;;;;;;;9.33;3.57;;;11.70;99.90;;;;;;5000917;28;20601;-95
2021/10/04 05:27:22;;;;;;;10.03;3.00;;;11.70;99.90;;;;;;5000351;28;20658;-95
2021/10/04 05:29:54;;;;;;;10.27;2.93;;;11.70;99.90;;;;;;4984656;28;20212;-95
2021/10/04 05:32:25;;;;;;;11.37;3.37;;;11.70;99.90;;;;;;5001249;28;20237;-95
2021/10/04 05:35:00;;;;;;;8.17;3.23;;;11.70;99.90;;;;;;5010759;28;20309;-95
2021/10/04 05:37:32;;;;;;;8.00;3.93;;;11.70;99.90;;;;;;5018019;28;20194;-95
2021/10/04 05:40:08;;;;;;;14.33;3.50;;;11.70;99.90;;;;;;5018051;28;20206;-95
2021/10/04 05:42:40;;;;;;;8.97;3.63;;;11.60;99.90;;;;;;4995566;28;20202;-95
2021/10/04 05:45:14;;;;;;;14.17;3.43;;;11.70;99.90;;;;;;4992851;28;20191;-96
2021/10/04 05:47:46;;;;;;;10.53;3.90;;;11.60;99.90;;;;;;4989600;28;20230;-96
2021/10/04 05:50:19;;;;;;;10.67;3.20;;;11.60;99.90;;;;;;5003806;28;20221;-96
2021/10/04 05:52:52;;;;;;;9.70;3.70;;;11.60;99.90;;;;;;5005346;28;20234;-96
2021/10/04 05:55:31;;;;;;;9.57;3.50;;;11.60;99.90;;;;;;5003224;28;20278;-95
2021/10/04 05:58:03;;;;;;;9.20;3.10;;;11.60;99.90;;;;;;4987498;28;20214;-96
2021/10/04 06:00:37;;;;;;;10.07;3.20;;;11.60;99.90;;;;;;4967161;28;20203;-96
2021/10/04 06:03:09;;;;;;;10.07;3.70;;;11.60;99.90;;;;;;4981357;28;20528;-96
2021/10/04 06:05:41;;;;;;;9.40;3.17;;;11.60;99.90;;;;;;4981627;28;20207;-96
2021/10/04 06:08:13;;;;;;;7.70;3.20;;;11.50;99.90;;;;;;4964032;28;20667;-95
2021/10/04 06:10:47;;;;;;;5.70;2.93;;;11.50;99.90;;;;;;4980026;28;20241;-95
2021/10/04 06:13:18;;;;;;;9.27;3.03;;;11.40;99.90;;;;;;4984070;28;20261;-95
2021/10/04 06:15:53;;;;;;;9.87;2.97;;;11.40;99.90;;;;;;4985672;28;20294;-94
2021/10/04 06:18:26;;;;;;;6.00;2.47;;;11.40;99.90;;;;;;4988101;28;20203;-95
2021/10/04 06:20:59;;;;;;;9.00;2.80;;;11.40;99.90;;;;;;4986903;28;20229;-95
2021/10/04 06:23:30;;;;;;;8.30;2.60;;;11.40;99.90;;;;;;4980773;28;20246;-95
2021/10/04 06:26:04;;;;;;;8.60;2.63;;;11.40;99.90;;;;;;4979056;28;20239;-95
2021/10/04 06:28:36;;;;;;;10.23;3.10;;;11.40;99.90;;;;;;4963895;28;20298;-96
2021/10/04 06:31:08;;;;;;;10.30;3.20;;;11.50;99.90;;;;;;4979903;28;20207;-95
2021/10/04 06:33:40;;;;;;;7.57;2.50;;;11.50;99.90;;;;;;4978820;28;20243;-95
2021/10/04 06:36:13;;;;;;;11.07;2.80;;;11.50;99.90;;;;;;4978475;28;20245;-95
2021/10/04 06:38:45;;;;;;;6.87;3.23;;;11.50;99.90;;;;;;4983472;28;20273;-95
2021/10/04 06:41:18;;;;;;;10.20;2.90;;;11.50;99.90;;;;;;4984261;28;20275;-94
2021/10/04 06:43:50;;;;;;;5.57;2.27;;;11.50;99.90;;;;;;4987478;28;20267;-93
2021/10/04 06:46:23;;;;;;;5.03;2.23;;;11.40;99.90;;;;;;5003813;28;20206;-96
2021/10/04 06:48:55;;;;;;;10.90;2.87;;;11.40;99.90;;;;;;5001516;28;20237;-96
2021/10/04 06:51:28;;;;;;;10.27;2.17;;;11.40;99.90;;;;;;5002743;28;20229;-94
2021/10/04 06:54:01;;;;;;;9.30;2.57;;;11.40;99.90;;;;;;5008087;28;20234;-93
2021/10/04 06:56:34;;;;;;;8.07;2.27;;;11.40;99.90;;;;;;5006966;28;20245;-94
2021/10/04 06:59:07;;;;;;;10.10;2.57;;;11.40;99.90;;;;;;5000870;28;20214;-96
2021/10/04 07:01:40;;;;;;;10.90;2.07;;;11.40;99.90;;;;;;4984301;28;20445;-96
2021/10/04 07:04:12;;;;;;;8.07;2.17;;;11.30;99.90;;;;;;4982004;28;20644;-95
2021/10/04 07:06:43;;;;;;;4.57;1.97;;;11.30;99.90;;;;;;4998984;28;20210;-95
2021/10/04 07:09:15;;;;;;;4.83;2.10;;;11.30;99.90;;;;;;4998803;28;20218;-95
2021/10/04 07:11:48;;;;;;;5.67;2.10;;;11.20;99.90;;;;;;5000044;28;20214;-95
2021/10/04 07:14:20;;;;;;;7.70;2.20;;;11.20;99.90;;;;;;4998295;28;20238;-95
2021/10/04 07:16:52;;;;;;;8.17;2.20;;;11.10;99.90;;;;;;4973689;28;20210;-95
2021/10/04 07:19:24;;;;;;;8.20;2.77;;;11.10;99.90;;;;;;4962951;28;20207;-95
2021/10/04 07:21:56;;;;;;;7.77;2.40;;;11.00;99.90;;;;;;4979075;28;20218;-95
2021/10/04 07:24:27;;;;;;;8.03;2.50;;;10.90;99.90;;;;;;4963106;28;20238;-95
2021/10/04 07:27:04;;;;;;;6.97;2.10;;;10.90;99.90;;;;;;4978826;28;20250;-95
2021/10/04 07:29:38;;;;;;;5.03;1.90;;;10.80;99.90;;;;;;4979892;28;20203;-95
2021/10/04 07:32:14;;;;;;;11.30;2.70;;;10.90;99.90;;;;;;4979922;28;20581;-95
2021/10/04 07:34:59;;;;;;;8.97;2.27;;;10.90;99.90;;;;;;4980914;28;20214;-95
2021/10/04 07:37:34;;;;;;;5.43;2.03;;;10.90;99.90;;;;;;4979711;28;20252;-94
2021/10/04 07:40:11;;;;;;;5.57;2.03;;;10.90;99.90;;;;;;4979903;28;20290;-96
2021/10/04 07:42:45;;;;;;;3.97;2.00;;;10.90;99.90;;;;;;4979627;28;20207;-95
2021/10/04 07:45:17;;;;;;;7.77;2.77;;;10.90;99.90;;;;;;4968574;28;20229;-95
2021/10/04 07:47:50;;;;;;;6.87;2.17;;;10.90;99.90;;;;;;5001225;28;20349;-95
2021/10/04 07:50:24;;;;;;;10.43;2.50;;;10.80;99.90;;;;;;5097454;23;20241;-95
2021/10/04 07:52:56;;;;;;;7.30;2.20;;;10.80;99.90;;;;;;5019500;28;20273;-96
2021/10/04 07:55:28;;;;;;;9.30;3.00;;;10.80;99.90;;;;;;5008443;28;20382;-95
2021/10/04 07:58:01;;;;;;;6.93;2.40;;;10.90;99.90;;;;;;5004379;28;20234;-96
2021/10/04 08:00:33;;;;;;;6.33;3.07;;;10.90;99.90;;;;;;5002530;28;20218;-95
2021/10/04 08:03:12;;;;;;;8.33;2.40;;;10.80;99.90;;;;;;4986384;28;20221;-95
2021/10/04 08:05:57;;;;;;;9.03;3.10;;;10.80;99.90;;;;;;4996223;28;20217;-96
2021/10/04 08:08:29;;;;;;;10.03;2.93;;;10.80;99.90;;;;;;5001729;28;20670;-95
2021/10/04 08:11:00;;;;;;;9.10;2.07;;;10.80;99.90;;;;;;5002209;28;20225;-95
2021/10/04 08:13:35;;;;;;;9.90;2.10;;;10.80;99.90;;;;;;4985667;28;20230;-95
2021/10/04 08:16:07;;;;;;;8.20;2.30;;;10.80;99.90;;;;;;4984236;28;20237;-95
2021/10/04 08:18:39;;;;;;;7.90;2.20;;;10.70;99.90;;;;;;5001678;28;20648;-95
2021/10/04 08:21:12;;;;;;;12.70;2.07;;;10.80;99.90;;;;;;5001212;28;20214;-95
2021/10/04 08:23:44;;;;;;;10.80;2.70;;;10.90;99.90;;;;;;5001876;28;20648;-95
2021/10/04 08:26:18;;;;;;;11.17;2.77;;;10.90;99.90;;;;;;5002052;28;20214;-95
2021/10/04 08:28:51;;;;;;;9.10;2.30;;;10.90;99.90;;;;;;5002982;28;20207;-95
2021/10/04 08:31:29;;;;;;;8.13;2.00;;;10.80;99.90;;;;;;5002654;28;20218;-94
2021/10/04 08:34:02;;;;;;;8.90;2.80;;;10.80;99.90;;;;;;4986911;28;20262;-95
2021/10/04 08:36:35;;;;;;;8.70;2.53;;;10.80;99.90;;;;;;5004639;28;20233;-95
2021/10/04 08:39:07;;;;;;;8.17;2.30;;;10.90;99.90;;;;;;5003537;28;20695;-96
2021/10/04 08:41:39;;;;;;;7.90;2.40;;;11.00;99.90;;;;;;4987124;28;20206;-96
2021/10/04 08:44:14;;;;;;;10.87;2.43;;;11.00;99.90;;;;;;5002313;28;20698;-95
2021/10/04 08:46:48;;;;;;;9.17;2.30;;;11.00;99.90;;;;;;5001614;28;20257;-95
2021/10/04 08:49:23;;;;;;;14.83;3.00;;;11.00;99.90;;;;;;4999440;28;20214;-96
2021/10/04 08:51:55;;;;;;;12.63;2.70;;;11.00;99.90;;;;;;5019068;28;20182;-96
2021/10/04 08:54:26;;;;;;;7.27;2.17;;;11.00;99.90;;;;;;5003097;28;20238;-94
2021/10/04 08:56:58;;;;;;;9.93;2.30;;;11.10;99.90;;;;;;4998650;28;20237;-95
2021/10/04 08:59:33;;;;;;;12.47;2.20;;;11.10;99.90;;;;;;5063301;23;20233;-95
2021/10/04 09:02:25;;;;;;;13.93;2.57;;;11.10;99.90;;;;;;5056848;28;20193;-95
2021/10/04 09:05:18;;;;;;;11.13;2.33;;;11.10;99.90;;;;;;5051677;28;20244;-95
2021/10/04 09:07:52;;;;;;;13.63;2.27;;;11.10;99.90;;;;;;5058721;28;20204;-96
2021/10/04 09:10:25;;;;;;;11.33;2.47;;;11.10;99.90;;;;;;5058838;28;20189;-95
2021/10/04 09:13:00;;;;;;;10.90;2.33;;;11.10;99.90;;;;;;5058486;28;20189;-95
2021/10/04 09:15:36;;;;;;;10.17;2.00;;;11.10;99.90;;;;;;5057553;28;20200;-95
2021/10/04 09:18:12;;;;;;;14.27;2.50;;;11.10;99.90;;;;;;5053413;28;20219;-96
2021/10/04 09:20:58;;;;;;;11.90;2.70;;;11.10;99.90;;;;;;5041010;28;20251;-95
2021/10/04 09:23:36;;;;;;;8.13;2.07;;;11.10;99.90;;;;;;5041729;28;20217;-95
2021/10/04 09:26:09;;;;;;;10.73;2.00;;;11.10;99.90;;;;;;5040873;28;20216;-95
2021/10/04 09:28:43;;;;;;;10.50;2.50;;;11.10;99.90;;;;;;5028070;28;20229;-96
2021/10/04 09:31:25;;;;;;;12.27;2.43;;;11.10;99.90;;;;;;5042034;28;20271;-96
2021/10/04 09:34:08;;;;;;;12.73;2.60;;;11.10;99.90;;;;;;5040472;28;20235;-96
2021/10/04 09:36:42;;;;;;;11.17;2.40;;;11.10;99.90;;;;;;5040391;28;20236;-96
2021/10/04 09:39:22;;;;;;;9.33;2.30;;;11.20;99.90;;;;;;5040258;28;20212;-96
2021/10/04 09:42:14;;;;;;;10.37;2.53;;;11.20;99.90;;;;;;5039335;28;20208;-96
2021/10/04 09:44:50;;;;;;;12.97;2.03;;;11.20;99.90;;;;;;5035923;28;20205;-96
2021/10/04 09:47:25;;;;;;;7.80;1.83;;;11.20;99.90;;;;;;5019454;28;20565;-96
2021/10/04 09:50:01;;;;;;;11.30;2.27;;;11.20;99.90;;;;;;5022187;28;20201;-95
2021/10/04 09:52:48;;;;;;;10.20;2.10;;;11.20;99.90;;;;;;5013872;28;20230;-96
2021/10/04 09:55:39;;;;;;;9.73;2.40;;;11.10;99.90;;;;;;5000760;28;20262;-96
2021/10/04 09:58:14;;;;;;;14.00;2.40;;;11.10;99.90;;;;;;5013718;28;20241;-95
2021/10/04 10:00:53;;;;;;;13.53;2.27;;;11.10;99.90;;;;;;5031014;28;20212;-96
2021/10/04 10:03:28;;;;;;;9.87;1.83;;;11.10;99.90;;;;;;5035644;28;20228;-96
2021/10/04 10:06:03;;;;;;;13.07;2.50;;;11.10;99.90;;;;;;5033160;28;20201;-96
2021/10/04 10:08:34;;;;;;;9.30;2.23;;;11.10;99.90;;;;;;5022059;28;20201;-96
2021/10/04 10:11:13;;;;;;;10.97;2.17;;;11.10;99.90;;;;;;5021916;28;20217;-96
2021/10/04 10:13:44;;;;;;;7.17;1.63;;;11.10;99.90;;;;;;5007381;28;20221;-96
2021/10/04 10:16:18;;;;;;;12.23;2.23;;;11.20;99.90;;;;;;5019721;28;20212;-96
2021/10/04 10:19:01;;;;;;;11.27;2.17;;;11.20;99.90;;;;;;5019699;28;20213;-95
2021/10/04 10:24:32;;;;;;;11.70;2.17;;;11.10;99.90;;;;;;5019693;28;20209;-96
2021/10/04 10:27:05;;;;;;;11.90;2.63;;;11.10;99.90;;;;;;5019710;28;20255;-96
2021/10/04 10:29:37;;;;;;;11.17;1.93;;;11.20;99.90;;;;;;5019132;28;20291;-95
2021/10/04 10:32:14;;;;;;;14.73;2.27;;;11.10;99.90;;;;;;5002303;28;20214;-95
2021/10/04 10:35:16;;;;;;;11.57;2.13;;;11.20;99.90;;;;;;5017600;28;20241;-95
2021/10/04 10:37:50;;;;;;;7.50;1.90;;;11.20;99.90;;;;;;5022872;28;20304;-96
2021/10/04 10:40:28;;;;;;;10.83;2.47;;;11.20;99.90;;;;;;5018972;28;20201;-95
2021/10/04 10:43:07;;;;;;;8.73;2.33;;;11.20;99.90;;;;;;5019868;28;20208;-96
2021/10/04 10:48:49;;;;;;;8.93;1.80;;;11.20;99.90;;;;;;5016734;28;20205;-96
2021/10/04 10:51:23;;;;;;;9.33;2.17;;;11.20;99.90;;;;;;5018681;28;20309;-96
2021/10/04 10:53:54;;;;;;;10.20;2.00;;;11.30;99.90;;;;;;5017087;28;20732;-96
2021/10/04 10:56:26;;;;;;;8.53;1.77;;;11.40;99.90;;;;;;5017146;28;20237;-96
2021/10/04 10:59:18;;;;;;;11.60;2.03;;;11.30;99.90;;;;;;4980763;28;20226;-95
2021/10/04 11:01:50;;;;;;;6.73;1.83;;;11.20;99.90;;;;;;4967600;28;20210;-96
2021/10/04 11:04:41;;;;;;;10.17;2.13;;;11.10;99.90;;;;;;4636036;28;10000063;-96
2021/10/04 11:07:52;;;;;;;8.60;1.53;;;11.10;99.90;;;;;;4997472;28;20561;-96
2021/10/04 11:10:25;;;;;;;10.30;2.07;;;11.10;99.90;;;;;;4998557;28;20257;-96
2021/10/04 11:13:24;;;;;;;6.83;2.20;;;11.20;99.90;;;;;;4981820;28;20225;-95
2021/10/04 11:15:57;;;;;;;9.67;2.07;;;11.20;99.90;;;;;;4954839;28;20265;-95
2021/10/04 11:18:39;;;;;;;8.50;2.07;;;11.20;99.90;;;;;;5010893;28;20270;-96
2021/10/04 11:21:12;;;;;;;7.03;1.53;;;11.20;99.90;;;;;;4999674;28;20214;-95
2021/10/04 11:23:48;;;;;;;7.27;1.83;;;11.10;99.90;;;;;;5000341;28;20219;-96
2021/10/04 11:26:22;;;;;;;7.87;1.83;;;11.10;99.90;;;;;;5002393;28;20220;-94
2021/10/04 11:28:56;;;;;;;4.60;1.57;;;11.10;99.90;;;;;;5017902;28;20537;-94
2021/10/04 11:31:29;;;;;;;11.17;2.00;;;11.00;99.90;;;;;;5003410;28;20256;-96
2021/10/04 11:34:04;;;;;;;10.33;1.90;;;11.10;99.90;;;;;;5005865;28;20210;-94
2021/10/04 11:36:39;;;;;;;9.53;1.73;;;11.20;99.90;;;;;;5004602;28;20245;-95
2021/10/04 11:39:16;;;;;;;8.67;2.00;;;11.10;99.90;;;;;;5005920;28;20218;-93
2021/10/04 11:41:50;;;;;;;8.77;1.63;;;11.10;99.90;;;;;;5004099;28;20210;-95
2021/10/04 11:44:29;;;;;;;9.70;1.80;;;11.10;99.90;;;;;;5008332;28;20214;-94
2021/10/04 11:47:12;;;;;;;5.57;1.60;;;11.10;99.90;;;;;;4994584;28;20217;-94
2021/10/04 11:52:32;;;;;;;10.57;1.60;;;11.00;99.90;;;;;;5002257;28;20621;-95
2021/10/04 11:58:04;;;;;;;8.97;1.90;;;11.10;99.90;;;;;;5007392;28;20281;-95
2021/10/04 12:00:36;;;;;;;7.47;1.70;;;11.10;99.90;;;;;;5001967;28;20214;-95
2021/10/04 12:06:00;;;;;;;6.37;2.20;;;11.10;99.90;;;;;;5003791;28;20202;-95
2021/10/04 12:08:39;;;;;;;8.57;2.00;;;11.10;99.90;;;;;;4987826;28;20214;-95
2021/10/04 12:11:16;;;;;;;10.07;2.10;;;11.00;99.90;;;;;;5013814;28;20198;-94
2021/10/04 12:13:48;;;;;;;8.90;1.80;;;11.10;99.90;;;;;;5019408;28;20202;-95
2021/10/04 12:16:22;;;;;;;8.87;1.57;;;11.10;99.90;;;;;;5016596;28;20237;-95
2021/10/04 12:18:57;;;;;;;10.53;1.60;;;11.10;99.90;;;;;;5010285;28;20217;-95
2021/10/04 12:21:31;;;;;;;10.07;1.83;;;11.10;99.90;;;;;;5023158;28;20260;-94
2021/10/04 12:24:10;;;;;;;10.17;1.90;;;11.10;99.90;;;;;;5021827;28;20733;-95
2021/10/04 12:26:58;;;;;;;8.43;1.97;;;11.10;99.90;;;;;;5020073;28;20233;-95
2021/10/04 12:29:38;;;;;;;14.30;2.43;;;11.10;99.90;;;;;;5020527;28;20277;-95
2021/10/04 12:32:21;;;;;;;9.23;1.93;;;11.10;99.90;;;;;;5020962;28;20210;-94
2021/10/04 12:35:11;;;;;;;10.67;1.60;;;11.10;99.90;;;;;;5021082;28;20209;-95
2021/10/04 12:37:48;;;;;;;8.30;2.37;;;11.10;99.90;;;;;;5019634;28;20197;-95
2021/10/04 12:40:24;;;;;;;7.53;2.03;;;11.10;99.90;;;;;;5020419;28;20292;-95
2021/10/04 12:43:02;;;;;;;8.90;1.90;;;11.10;99.90;;;;;;5021053;28;20259;-95
2021/10/04 12:45:36;;;;;;;8.50;1.83;;;11.00;99.90;;;;;;5001027;28;20237;-95
2021/10/04 12:48:16;;;;;;;9.30;1.63;;;11.10;99.90;;;;;;5000556;28;20218;-95
2021/10/04 12:50:52;;;;;;;11.43;1.97;;;11.10;99.90;;;;;;5000771;28;20222;-96
2021/10/04 12:53:27;;;;;;;6.90;1.77;;;11.00;99.90;;;;;;5000796;28;20202;-96
2021/10/04 12:56:01;;;;;;;5.57;1.83;;;11.00;99.90;;;;;;4999384;28;20248;-96
2021/10/04 12:58:37;;;;;;;9.73;2.37;;;11.10;99.90;;;;;;5016846;28;20244;-95
2021/10/04 13:01:15;;;;;;;14.20;2.37;;;11.10;99.90;;;;;;5002332;28;20296;-95
2021/10/04 13:03:58;;;;;;;6.73;2.10;;;11.10;99.90;;;;;;5019425;28;20209;-95
2021/10/04 13:06:31;;;;;;;8.17;2.07;;;11.10;99.90;;;;;;5018976;28;20214;-95
2021/10/04 13:09:05;;;;;;;9.63;1.77;;;11.10;99.90;;;;;;5020310;28;20213;-95
2021/10/04 13:11:37;;;;;;;8.17;1.77;;;11.20;99.90;;;;;;5019554;28;20221;-95
2021/10/04 13:14:11;;;;;;;10.20;2.20;;;11.10;99.90;;;;;;5020217;28;20229;-95
2021/10/04 13:16:43;;;;;;;11.77;2.37;;;11.20;99.90;;;;;;5020898;28;20666;-95
2021/10/04 13:19:16;;;;;;;9.93;2.10;;;11.10;99.90;;;;;;5022613;28;20252;-95
2021/10/04 13:21:48;;;;;;;11.03;2.17;;;11.10;99.90;;;;;;5020862;28;20226;-95
2021/10/04 13:24:21;;;;;;;8.83;1.90;;;11.10;99.90;;;;;;5020709;28;20577;-95
2021/10/04 13:26:53;;;;;;;8.00;2.20;;;11.10;99.90;;;;;;5019960;28;20209;-95
2021/10/04 13:29:30;;;;;;;10.80;2.00;;;11.00;99.90;;;;;;5020378;28;20276;-95
2021/10/04 13:32:03;;;;;;;10.80;1.93;;;11.00;99.90;;;;;;5002947;28;20240;-95
2021/10/04 13:34:34;;;;;;;7.50;1.90;;;11.10;99.90;;;;;;5008491;28;20213;-95
2021/10/04 13:37:07;;;;;;;11.60;2.10;;;11.10;99.90;;;;;;4999048;28;20258;-96
2021/10/04 13:39:38;;;;;;;8.87;1.80;;;11.10;99.90;;;;;;5000251;28;20236;-95
2021/10/04 13:42:11;;;;;;;7.63;1.90;;;11.10;99.90;;;;;;5000006;28;20615;-96
2021/10/04 13:44:44;;;;;;;7.47;1.50;;;11.10;99.90;;;;;;5011780;28;20238;-95
2021/10/04 13:47:16;;;;;;;6.90;1.70;;;11.10;99.90;;;;;;5019983;28;20214;-95
2021/10/04 13:49:47;;;;;;;7.27;2.23;;;11.10;99.90;;;;;;5019096;28;20658;-94
2021/10/04 13:52:19;;;;;;;9.03;2.40;;;11.20;99.90;;;;;;5006294;28;20690;-96
2021/10/04 13:54:50;;;;;;;8.10;1.80;;;11.10;99.90;;;;;;5019278;28;20233;-96
2021/10/04 13:57:22;;;;;;;6.97;1.63;;;11.10;99.90;;;;;;5010190;28;20253;-94
2021/10/04 13:59:56;;;;;;;10.10;2.20;;;11.10;99.90;;;;;;4979868;28;20317;-94
2021/10/04 14:02:29;;;;;;;10.20;2.10;;;11.10;99.90;;;;;;5015797;28;20201;-94
2021/10/04 14:05:03;;;;;;;11.20;2.20;;;11.00;99.90;;;;;;5003338;28;20806;-94
2021/10/04 14:07:35;;;;;;;9.37;1.77;;;11.10;99.90;;;;;;5020049;28;20237;-95
2021/10/04 14:10:13;;;;;;;8.97;2.10;;;11.10;99.90;;;;;;4987147;28;20213;-95
2021/10/04 14:12:45;;;;;;;9.00;1.83;;;11.10;99.90;;;;;;5019817;28;20205;-95
2021/10/04 14:15:20;;;;;;;8.53;2.30;;;11.10;99.90;;;;;;5018649;28;20643;-94
2021/10/04 14:17:52;;;;;;;8.63;2.10;;;11.10;99.90;;;;;;5006178;28;20228;-95
2021/10/04 14:23:10;;;;;;;9.23;1.73;;;11.10;99.90;;;;;;5033466;28;20224;-95
2021/10/04 14:25:43;;;;;;;8.33;1.87;;;11.10;99.90;;;;;;5019982;28;20203;-95
2021/10/04 14:28:14;;;;;;;7.73;1.53;;;11.00;99.90;;;;;;5023255;28;20226;-94
2021/10/04 14:30:54;;;;;;;6.83;1.73;;;11.10;99.90;;;;;;5148658;23;20231;-92
2021/10/04 14:33:28;;;;;;;5.73;1.50;;;11.10;99.90;;;;;;5016574;28;20198;-96
2021/10/04 14:36:00;;;;;;;8.20;1.87;;;11.00;99.90;;;;;;5001114;28;20217;-95
2021/10/04 14:38:33;;;;;;;11.17;1.80;;;11.00;99.90;;;;;;5017802;28;20222;-95